Coral Coast — WDF5120 — position and weather

sailwx.info

Track history (hours):
 
Tides and Currents Weather Stations Pressure Air Temp Water Temp Dewpoint Dewpoint Depression Visibility Wind Speed Wind Dir Waves Ship Positions

Coral Coast

Owner: Dann MarineTowing, LC., Chesapeake City, MD. More information available from US FCC via Universal Licensing System and Coast Guard Vessel Documentation Center.

Last reported at 2016-Aug-26 07:34 UTC. Time now 2016-Aug-26 08:29 UTC.
Position N 39°37' W 075°35'.

Length 70 m; draft 5.3 m.

Type: Tug. MMSI: 367459570.

Date/timePositionNaut miles runAvg speedWind from/ knotsBaromVisibWave heightAir tempDewpointWater temp
2016-Aug-26 07:34N 39°37' W 075°35'7 7.0
2016-Aug-26 06:33N 39°43' W 075°30'14 6.9
2016-Aug-26 04:33N 39°51' W 075°15'7 7.2
2016-Aug-26 03:33N 39°55' W 075°08'0 0.0
2016-Aug-26 02:33N 39°55' W 075°08'0 0.0
2016-Aug-26 01:33N 39°55' W 075°08'0 0.0
2016-Aug-26 00:33N 39°55' W 075°08'0 0.0
2016-Aug-25 23:33N 39°55' W 075°08'0 0.0
2016-Aug-25 22:33N 39°55' W 075°08'0 0.0
2016-Aug-25 21:33N 39°55' W 075°08'1 0.9
2016-Aug-25 20:33N 39°56' W 075°08'0 0.1
2016-Aug-25 19:33N 39°56' W 075°08'0 0.1
2016-Aug-25 18:33N 39°56' W 075°08'1 0.9
2016-Aug-25 17:33N 39°55' W 075°08'1 1.0
2016-Aug-25 16:33N 39°56' W 075°08'1 1.0
2016-Aug-25 15:33N 39°55' W 075°08'0 0.0
2016-Aug-25 14:33N 39°55' W 075°08'0 0.0
2016-Aug-25 13:33N 39°55' W 075°08'0 0.0
2016-Aug-25 12:33N 39°55' W 075°08'0 0.0
2016-Aug-25 11:33N 39°55' W 075°08'0 0.0
2016-Aug-25 10:33N 39°55' W 075°08'0 0.0
2016-Aug-25 09:33N 39°55' W 075°08'0 0.0
2016-Aug-25 08:33N 39°55' W 075°08'0 0.0
2016-Aug-25 07:33N 39°55' W 075°08'2 1.7
2016-Aug-25 06:33N 39°53' W 075°08'11 5.4
2016-Aug-25 04:33N 39°50' W 075°22'6 5.9
2016-Aug-25 03:33N 39°47' W 075°28'6 5.8
2016-Aug-25 02:34N 39°41' W 075°31'5 5.5
2016-Aug-25 01:33N 39°37' W 075°34'5 4.6
2016-Aug-25 00:33N 39°32' W 075°33'5 5.0
2016-Aug-24 23:33N 39°27' W 075°33'7 7.0
2016-Aug-24 22:33N 39°22' W 075°27'7 6.6
2016-Aug-24 21:33N 39°17' W 075°21'9 8.8
2016-Aug-24 20:33N 39°10' W 075°15'8 8.5
2016-Aug-24 19:33N 39°02' W 075°10'9 8.8
2016-Aug-24 18:33N 38°54' W 075°05'53 7.6
2016-Aug-24 11:31N 39°27' W 074°10'9 9.1
2016-Aug-24 10:32N 39°35' W 074°04'10 9.2
2016-Aug-24 09:30N 39°44' W 073°60'10 9.2
2016-Aug-24 08:28N 39°53' W 073°57'35 9.1
2016-Aug-24 04:33N 40°28' W 073°54'8 7.9
2016-Aug-24 03:33N 40°33' W 074°02'5 5.0
2016-Aug-24 02:33N 40°38' W 074°03'7 6.6
2016-Aug-24 01:33N 40°44' W 073°58'6 6.1
2016-Aug-24 00:34N 40°47' W 073°52'2 0.8
2016-Aug-23 22:18N 40°46' W 073°51'0 0.0
2016-Aug-23 21:26N 40°46' W 073°51'0 0.0
2016-Aug-23 20:13N 40°46' W 073°51'0 0.0
2016-Aug-23 19:24N 40°46' W 073°51'0 0.0
2016-Aug-23 18:33N 40°46' W 073°51'0 0.0
2016-Aug-23 10:18N 40°46' W 073°51'0 0.0
2016-Aug-23 09:24N 40°46' W 073°51'0 0.0
2016-Aug-23 08:30N 40°46' W 073°51'0 0.0
2016-Aug-23 07:33N 40°46' W 073°51'0 0.0
2016-Aug-23 06:31N 40°46' W 073°51'3 3.3
2016-Aug-23 05:28N 40°48' W 073°54'7 7.7
2016-Aug-23 04:33N 40°42' W 073°59'  
2016-Aug-20 23:34N 40°44' W 074°01'4 3.9
2016-Aug-20 22:29N 40°47' W 073°56'4 2.3
2016-Aug-20 20:33N 40°46' W 073°51'0 0.0
2016-Aug-20 01:06N 40°46' W 073°51'0 0.0
2016-Aug-20 00:32N 40°46' W 073°51'0 0.0
2016-Aug-19 17:17N 40°46' W 073°51'2 0.1
2016-Aug-19 02:10N 40°47' W 073°52'6 9.1
2016-Aug-19 01:33N 40°45' W 073°58'1010.1
2016-Aug-19 00:33N 40°38' W 074°09'1 0.5
2016-Aug-18 22:19N 40°39' W 074°10'0 0.0
2016-Aug-18 16:33N 40°39' W 074°10'1 1.3
2016-Aug-18 15:29N 40°38' W 074°12'0 0.1
2016-Aug-18 14:33N 40°38' W 074°12'0 0.1
2016-Aug-18 13:33N 40°38' W 074°12'8 8.1
2016-Aug-18 12:33N 40°41' W 074°02'7 7.5
2016-Aug-18 11:33N 40°47' W 073°56'2 0.2
2016-Aug-18 01:24N 40°48' W 073°54'5 5.9
2016-Aug-18 00:33N 40°44' W 073°58'3 2.6
2016-Aug-17 23:33N 40°43' W 074°01'  
Track history (hours):
 
Tides and Currents Weather Stations Pressure Air Temp Water Temp Dewpoint Dewpoint Depression Visibility Wind Speed Wind Dir Waves Ship Positions

Coral Coast

Owner: Dann MarineTowing, LC., Chesapeake City, MD. More information available from US FCC via Universal Licensing System and Coast Guard Vessel Documentation Center.

Last reported at 2016-Aug-26 07:34 UTC. Time now 2016-Aug-26 08:29 UTC.
Position N 39°37' W 075°35'.

Length 70 m; draft 5.3 m.

Type: Tug. MMSI: 367459570.

Date/timePositionNaut miles runAvg speedWind from/ knotsBaromVisibWave heightAir tempDewpointWater temp
2016-Aug-26 07:34N 39°37' W 075°35'7 7.0
2016-Aug-26 06:33N 39°43' W 075°30'14 6.9
2016-Aug-26 04:33N 39°51' W 075°15'7 7.2
2016-Aug-26 03:33N 39°55' W 075°08'0 0.0
2016-Aug-26 02:33N 39°55' W 075°08'0 0.0
2016-Aug-26 01:33N 39°55' W 075°08'0 0.0
2016-Aug-26 00:33N 39°55' W 075°08'0 0.0
2016-Aug-25 23:33N 39°55' W 075°08'0 0.0
2016-Aug-25 22:33N 39°55' W 075°08'0 0.0
2016-Aug-25 21:33N 39°55' W 075°08'1 0.9
2016-Aug-25 20:33N 39°56' W 075°08'0 0.1
2016-Aug-25 19:33N 39°56' W 075°08'0 0.1
2016-Aug-25 18:33N 39°56' W 075°08'1 0.9
2016-Aug-25 17:33N 39°55' W 075°08'1 1.0
2016-Aug-25 16:33N 39°56' W 075°08'1 1.0
2016-Aug-25 15:33N 39°55' W 075°08'0 0.0
2016-Aug-25 14:33N 39°55' W 075°08'0 0.0
2016-Aug-25 13:33N 39°55' W 075°08'0 0.0
2016-Aug-25 12:33N 39°55' W 075°08'0 0.0
2016-Aug-25 11:33N 39°55' W 075°08'0 0.0
2016-Aug-25 10:33N 39°55' W 075°08'0 0.0
2016-Aug-25 09:33N 39°55' W 075°08'0 0.0
2016-Aug-25 08:33N 39°55' W 075°08'0 0.0
2016-Aug-25 07:33N 39°55' W 075°08'2 1.7
2016-Aug-25 06:33N 39°53' W 075°08'11 5.4
2016-Aug-25 04:33N 39°50' W 075°22'6 5.9
2016-Aug-25 03:33N 39°47' W 075°28'6 5.8
2016-Aug-25 02:34N 39°41' W 075°31'5 5.5
2016-Aug-25 01:33N 39°37' W 075°34'5 4.6
2016-Aug-25 00:33N 39°32' W 075°33'5 5.0
2016-Aug-24 23:33N 39°27' W 075°33'7 7.0
2016-Aug-24 22:33N 39°22' W 075°27'7 6.6
2016-Aug-24 21:33N 39°17' W 075°21'9 8.8
2016-Aug-24 20:33N 39°10' W 075°15'8 8.5
2016-Aug-24 19:33N 39°02' W 075°10'9 8.8
2016-Aug-24 18:33N 38°54' W 075°05'53 7.6
2016-Aug-24 11:31N 39°27' W 074°10'9 9.1
2016-Aug-24 10:32N 39°35' W 074°04'10 9.2
2016-Aug-24 09:30N 39°44' W 073°60'10 9.2
2016-Aug-24 08:28N 39°53' W 073°57'35 9.1
2016-Aug-24 04:33N 40°28' W 073°54'8 7.9
2016-Aug-24 03:33N 40°33' W 074°02'5 5.0
2016-Aug-24 02:33N 40°38' W 074°03'7 6.6
2016-Aug-24 01:33N 40°44' W 073°58'6 6.1
2016-Aug-24 00:34N 40°47' W 073°52'2 0.8
2016-Aug-23 22:18N 40°46' W 073°51'0 0.0
2016-Aug-23 21:26N 40°46' W 073°51'0 0.0
2016-Aug-23 20:13N 40°46' W 073°51'0 0.0
2016-Aug-23 19:24N 40°46' W 073°51'0 0.0
2016-Aug-23 18:33N 40°46' W 073°51'0 0.0
2016-Aug-23 10:18N 40°46' W 073°51'0 0.0
2016-Aug-23 09:24N 40°46' W 073°51'0 0.0
2016-Aug-23 08:30N 40°46' W 073°51'0 0.0
2016-Aug-23 07:33N 40°46' W 073°51'0 0.0
2016-Aug-23 06:31N 40°46' W 073°51'3 3.3
2016-Aug-23 05:28N 40°48' W 073°54'7 7.7
2016-Aug-23 04:33N 40°42' W 073°59'  
2016-Aug-20 23:34N 40°44' W 074°01'4 3.9
2016-Aug-20 22:29N 40°47' W 073°56'4 2.3
2016-Aug-20 20:33N 40°46' W 073°51'0 0.0
2016-Aug-20 01:06N 40°46' W 073°51'0 0.0
2016-Aug-20 00:32N 40°46' W 073°51'0 0.0
2016-Aug-19 17:17N 40°46' W 073°51'2 0.1
2016-Aug-19 02:10N 40°47' W 073°52'6 9.1
2016-Aug-19 01:33N 40°45' W 073°58'1010.1
2016-Aug-19 00:33N 40°38' W 074°09'1 0.5
2016-Aug-18 22:19N 40°39' W 074°10'0 0.0
2016-Aug-18 16:33N 40°39' W 074°10'1 1.3
2016-Aug-18 15:29N 40°38' W 074°12'0 0.1
2016-Aug-18 14:33N 40°38' W 074°12'0 0.1
2016-Aug-18 13:33N 40°38' W 074°12'8 8.1
2016-Aug-18 12:33N 40°41' W 074°02'7 7.5
2016-Aug-18 11:33N 40°47' W 073°56'2 0.2
2016-Aug-18 01:24N 40°48' W 073°54'5 5.9
2016-Aug-18 00:33N 40°44' W 073°58'3 2.6
2016-Aug-17 23:33N 40°43' W 074°01'  

Dump ship's entire track history